Time;durP1;ratioP1;P1;durP2;ratioP2;P2;SDS_P1;SDS_P2;PMS_P1;PMS_P2;Temp;Humidity;BMP_temperature;BMP_pressure;BME280_temperature;BME280_humidity;BME280_pressure;Samples;Min_cycle;Max_cycle;Signal;HPM_P1;HPM_P2
2023/01/09 00:01:31;;;;;;;3.95;2.13;;;;;;;14.71;66.40;96277.06;5043193;28;20083;-25
2023/01/09 00:03:56;;;;;;;2.33;1.60;;;;;;;14.65;66.88;96300.75;5037429;28;20067;-25
2023/01/09 00:06:22;;;;;;;2.88;2.00;;;;;;;14.87;65.98;96286.16;5042700;28;20469;-25
2023/01/09 00:08:48;;;;;;;4.07;2.15;;;;;;;14.79;66.17;96272.06;5049867;28;20082;-25
2023/01/09 00:11:13;;;;;;;3.58;2.08;;;;;;;14.84;66.13;96300.72;5044274;28;20104;-25
2023/01/09 00:13:39;;;;;;;3.08;1.60;;;;;;;14.92;66.00;96271.91;5046262;28;20034;-25
2023/01/09 00:16:06;;;;;;;3.78;1.95;;;;;;;14.89;66.17;96276.28;5041046;28;20071;-25
2023/01/09 00:18:32;;;;;;;2.55;1.73;;;;;;;14.76;66.46;96267.53;5050085;28;20045;-25
2023/01/09 00:21:02;;;;;;;2.25;1.50;;;;;;;14.81;66.34;96280.56;5065085;28;20559;-25
2023/01/09 00:23:28;;;;;;;2.72;1.30;;;;;;;14.34;68.21;96261.94;5070763;28;20109;-25
2023/01/09 00:26:05;;;;;;;3.67;1.88;;;;;;;14.83;66.82;96263.72;5065502;28;20099;-25
2023/01/09 00:28:31;;;;;;;2.22;1.55;;;;;;;14.68;67.57;96272.53;5062289;28;20491;-25
2023/01/09 00:30:57;;;;;;;1.88;1.50;;;;;;;14.84;66.70;96246.09;5075414;28;20476;-26
2023/01/09 00:33:32;;;;;;;2.47;1.50;;;;;;;14.88;66.50;96250.19;5061768;28;20127;-25
2023/01/09 00:35:58;;;;;;;2.83;1.40;;;;;;;15.16;65.47;96252.88;5075114;28;20035;-26
2023/01/09 00:38:23;;;;;;;3.53;1.45;;;;;;;15.13;65.26;96238.16;5060267;28;20024;-25
2023/01/09 00:40:49;;;;;;;2.53;1.60;;;;;;;15.12;65.37;96231.16;5055067;28;20023;-25
2023/01/09 00:43:16;;;;;;;2.17;1.55;;;;;;;14.98;66.02;96224.38;5053993;28;20385;-25
2023/01/09 00:45:41;;;;;;;1.90;1.23;;;;;;;14.97;66.04;96222.09;5066530;28;20028;-25
2023/01/09 00:48:12;;;;;;;2.42;1.50;;;;;;;15.11;65.19;96216.00;5074649;28;20484;-25
2023/01/09 00:50:39;;;;;;;3.83;1.90;;;;;;;15.03;65.60;96223.78;5074996;28;20024;-25
2023/01/09 00:53:12;;;;;;;4.90;2.20;;;;;;;14.92;66.21;96217.28;5067816;28;20028;-25
2023/01/09 00:55:39;;;;;;;4.18;1.60;;;;;;;15.00;65.99;96204.81;5054982;28;20070;-25
2023/01/09 00:58:05;;;;;;;4.18;1.88;;;;;;;14.89;66.60;96207.28;5062634;28;20024;-25
2023/01/09 01:00:31;;;;;;;2.97;1.67;;;;;;;15.04;65.95;96214.38;5074458;28;20117;-25
2023/01/09 01:02:56;;;;;;;3.60;2.15;;;;;;;15.10;65.59;96198.09;5074795;28;20032;-25
2023/01/09 01:08:14;;;;;;;2.33;1.80;;;;;;;14.99;66.18;96173.25;5074771;28;20059;-25
2023/01/09 01:10:40;;;;;;;3.70;1.88;;;;;;;15.14;65.64;96165.16;5059691;28;20020;-25
2023/01/09 01:13:06;;;;;;;3.60;1.88;;;;;;;14.93;66.60;96175.13;5071748;28;20095;-26
2023/01/09 01:15:32;;;;;;;3.78;2.20;;;;;;;14.92;66.74;96163.44;5069295;28;20021;-25
2023/01/09 01:17:58;;;;;;;3.60;1.95;;;;;;;14.92;66.71;96163.44;5049250;28;20037;-25
2023/01/09 01:20:23;;;;;;;4.45;2.20;;;;;;;15.25;65.07;96165.41;5034501;28;20116;-25
2023/01/09 01:22:49;;;;;;;3.90;1.85;;;;;;;15.25;65.08;96166.16;5034472;28;20053;-25
2023/01/09 01:25:18;;;;;;;4.60;2.35;;;;;;;15.20;65.19;96172.28;5039181;28;20028;-25
2023/01/09 01:27:44;;;;;;;6.57;1.80;;;;;;;15.19;65.20;96167.28;5036357;28;20035;-25
2023/01/09 01:30:12;;;;;;;4.38;1.98;;;;;;;15.25;65.14;96168.91;5030471;28;20444;-26
2023/01/09 01:32:38;;;;;;;6.28;2.10;;;;;;;15.34;64.84;96179.00;5047065;28;20112;-25
2023/01/09 01:35:04;;;;;;;3.30;1.85;;;;;;;15.22;65.49;96167.09;5054079;28;20108;-25
2023/01/09 01:37:30;;;;;;;2.85;1.80;;;;;;;15.12;65.65;96162.13;5041063;28;20045;-25
2023/01/09 01:39:55;;;;;;;3.80;1.80;;;;;;;15.20;65.27;96164.06;5047665;28;20465;-25
2023/01/09 01:42:21;;;;;;;4.38;1.88;;;;;;;15.25;65.17;96147.03;5034079;28;20104;-25
2023/01/09 01:58:55;;;;;;;3.60;1.90;;;;;;;15.08;66.18;96119.34;5033818;28;20480;-25
2023/01/09 02:01:24;;;;;;;6.03;2.50;;;;;;;14.99;66.88;96094.81;5033371;28;20068;-25
2023/01/09 02:03:54;;;;;;;5.15;2.30;;;;;;;14.63;68.72;96062.22;5035721;28;20466;-25
2023/01/09 02:06:19;;;;;;;4.68;2.15;;;;;;;14.72;68.13;96095.69;5044308;28;20428;-25
2023/01/09 02:08:46;;;;;;;4.68;2.08;;;;;;;14.72;68.47;96095.69;5035998;28;20045;-26
2023/01/09 02:11:13;;;;;;;5.68;2.42;;;;;;;14.71;68.36;96075.06;5044369;28;20389;-25
2023/01/09 02:13:39;;;;;;;10.07;3.03;;;;;;;14.63;68.77;96087.56;5033733;28;20428;-25
2023/01/09 02:16:35;;;;;;;4.57;2.33;;;;;;;14.89;67.98;96073.50;5031364;28;20140;-25
2023/01/09 02:19:37;;;;;;;7.13;2.70;;;;;;;15.05;66.91;96076.59;5030976;28;20059;-25
2023/01/09 02:22:24;;;;;;;6.55;2.90;;;;;;;14.98;67.14;96062.50;5046452;28;20018;-25
2023/01/09 02:25:17;;;;;;;6.30;2.58;;;;;;;14.95;67.18;96055.28;5033638;28;20027;-25
2023/01/09 02:27:56;;;;;;;7.07;3.13;;;;;;;15.04;66.91;96057.94;5045437;28;20031;-25
2023/01/09 02:30:36;;;;;;;10.32;3.05;;;;;;;14.96;67.25;96045.88;5033205;28;20032;-25
2023/01/09 02:33:53;;;;;;;7.80;2.42;;;;;;;14.94;67.32;96042.84;5034154;28;20032;-25
2023/01/09 02:36:36;;;;;;;7.57;3.10;;;;;;;14.95;67.34;96033.44;5027762;28;20041;-25
2023/01/09 02:39:37;;;;;;;8.15;3.35;;;;;;;15.02;67.39;96028.38;5033340;28;20087;-25
2023/01/09 02:56:06;;;;;;;7.72;2.83;;;;;;;15.11;66.54;96030.28;5034261;28;20410;-25
2023/01/09 02:58:56;;;;;;;9.63;2.83;;;;;;;14.86;67.96;95997.97;5039024;28;20060;-25
2023/01/09 03:01:46;;;;;;;6.20;2.90;;;;;;;14.95;67.03;96001.41;5033261;28;20021;-25
2023/01/09 03:04:19;;;;;;;9.63;2.50;;;;;;;15.07;66.85;96013.31;5033284;28;20021;-25
2023/01/09 03:07:20;;;;;;;7.55;3.00;;;;;;;14.87;67.71;96024.81;5047615;28;20108;-25
2023/01/09 03:09:49;;;;;;;8.50;3.58;;;;;;;14.62;69.24;95968.69;4963331;28;20037;-25
2023/01/09 03:12:21;;;;;;;6.65;2.80;;;;;;;14.82;68.12;95964.66;4954517;28;20143;-25
2023/01/09 03:14:50;;;;;;;7.13;2.75;;;;;;;15.14;66.81;95968.50;4952798;28;20035;-25
2023/01/09 03:17:26;;;;;;;6.00;2.50;;;;;;;15.04;67.10;95965.09;4952840;28;20124;-25
2023/01/09 03:19:53;;;;;;;7.47;2.83;;;;;;;15.01;67.00;95957.81;4953189;28;20404;-25
2023/01/09 03:22:19;;;;;;;5.05;2.70;;;;;;;15.06;66.95;95974.34;4961686;28;20026;-25
2023/01/09 03:24:44;;;;;;;7.97;2.50;;;;;;;15.03;67.22;95947.19;4958834;28;20051;-25
2023/01/09 03:27:10;;;;;;;9.13;3.33;;;;;;;14.98;67.37;95973.16;4971750;28;20066;-25
2023/01/09 03:29:36;;;;;;;11.00;2.78;;;;;;;15.24;66.27;95959.00;4972094;28;20039;-26
2023/01/09 03:32:02;;;;;;;8.75;3.47;;;;;;;15.03;67.04;95980.72;4962882;28;20464;-25
2023/01/09 03:34:28;;;;;;;9.73;3.95;;;;;;;14.51;69.38;95957.53;4974745;28;20058;-25
2023/01/09 03:36:53;;;;;;;12.88;3.60;;;;;;;14.90;68.33;95982.94;4956425;29;20062;-25
2023/01/09 03:39:19;;;;;;;8.10;3.00;;;;;;;15.07;67.51;95972.34;4969041;28;20042;-25
2023/01/09 03:41:45;;;;;;;12.43;3.83;;;;;;;15.12;67.33;95976.41;4956114;29;20050;-25
2023/01/09 03:44:11;;;;;;;7.28;3.10;;;;;;;15.34;66.22;95985.03;4973135;28;20035;-25
2023/01/09 03:46:36;;;;;;;6.68;3.25;;;;;;;15.43;65.54;95979.50;5049434;28;20416;-25
2023/01/09 03:49:01;;;;;;;10.38;3.05;;;;;;;15.27;65.88;95964.28;5049315;28;20025;-25
2023/01/09 03:51:27;;;;;;;8.65;3.13;;;;;;;15.30;65.79;95974.28;5042697;28;20032;-25
2023/01/09 03:53:52;;;;;;;11.25;3.38;;;;;;;15.24;66.15;95975.41;5043030;28;20022;-25
2023/01/09 03:56:18;;;;;;;6.75;2.83;;;;;;;15.15;66.32;95998.09;5035979;28;20091;-25
2023/01/09 03:58:43;;;;;;;9.82;3.20;;;;;;;15.10;66.91;95969.44;5036182;28;20021;-25
2023/01/09 04:01:11;;;;;;;7.80;2.92;;;;;;;15.15;66.65;95975.47;5042218;28;20017;-25
2023/01/09 04:03:37;;;;;;;7.97;3.40;;;;;;;15.18;66.43;95963.63;5042727;28;20052;-25
2023/01/09 04:06:03;;;;;;;8.82;2.80;;;;;;;14.79;68.62;95957.38;5043053;28;20399;-25
2023/01/09 04:08:29;;;;;;;11.27;3.28;;;;;;;14.92;68.26;95955.16;5055925;28;20075;-26
2023/01/09 04:10:55;;;;;;;7.32;3.05;;;;;;;14.73;69.08;95952.53;5042680;28;20389;-25
2023/01/09 04:13:21;;;;;;;10.07;3.28;;;;;;;14.95;68.28;95937.88;5042510;28;20028;-25
2023/01/09 04:15:46;;;;;;;9.65;3.60;;;;;;;15.01;67.88;95966.00;5055425;28;20017;-25
2023/01/09 04:18:12;;;;;;;6.13;3.30;;;;;;;15.06;67.77;95973.56;5055228;28;20049;-25
2023/01/09 04:20:37;;;;;;;11.23;3.33;;;;;;;14.90;68.67;95938.50;5035676;28;20040;-25
2023/01/09 04:23:02;;;;;;;8.60;3.05;;;;;;;14.94;68.30;95939.06;5049033;28;20048;-25
2023/01/09 04:25:28;;;;;;;7.45;2.70;;;;;;;14.97;68.21;95941.63;5041993;28;20487;-25
2023/01/09 04:27:53;;;;;;;9.50;2.83;;;;;;;15.09;67.72;95937.13;5042293;28;20025;-25
2023/01/09 04:30:19;;;;;;;8.05;2.67;;;;;;;15.12;67.67;95944.38;5055031;28;20024;-25
2023/01/09 04:32:44;;;;;;;7.55;3.45;;;;;;;15.14;67.55;95941.94;5055320;28;20050;-25
2023/01/09 04:35:10;;;;;;;11.65;3.03;;;;;;;15.25;67.05;95933.97;5048368;28;20025;-25
2023/01/09 04:51:17;;;;;;;10.30;2.97;;;;;;;15.50;65.69;95918.25;5050841;28;20492;-25
2023/01/09 04:53:43;;;;;;;7.18;2.80;;;;;;;15.36;66.29;95917.00;5016952;28;20537;-25
2023/01/09 04:56:09;;;;;;;7.35;2.50;;;;;;;15.41;65.73;95919.09;5034327;28;20104;-25
2023/01/09 04:58:34;;;;;;;5.75;2.58;;;;;;;15.47;65.56;95914.47;5035066;28;20072;-25
2023/01/09 05:01:00;;;;;;;7.85;3.10;;;;;;;15.06;67.45;95916.22;5034976;28;20021;-25
2023/01/09 05:03:25;;;;;;;7.43;2.60;;;;;;;15.17;66.98;95953.91;5047019;28;20078;-25
2023/01/09 05:05:51;;;;;;;6.65;2.92;;;;;;;15.10;67.82;95919.50;5023412;28;20025;-25
2023/01/09 05:08:16;;;;;;;8.85;2.88;;;;;;;15.05;68.10;95912.00;5043343;28;20038;-25
2023/01/09 05:10:41;;;;;;;11.05;2.83;;;;;;;15.03;68.48;95914.44;5039977;28;20111;-25
2023/01/09 05:13:07;;;;;;;6.43;2.75;;;;;;;15.16;67.96;95953.16;5042912;28;20039;-25
2023/01/09 05:15:32;;;;;;;9.93;3.17;;;;;;;14.99;69.21;95908.38;5042494;28;20021;-25
2023/01/09 05:17:58;;;;;;;7.90;2.88;;;;;;;15.13;68.21;95902.19;5054329;28;20539;-25
2023/01/09 05:20:23;;;;;;;10.45;3.20;;;;;;;15.18;67.95;95909.75;5054140;28;20025;-25
2023/01/09 05:22:49;;;;;;;10.20;3.30;;;;;;;15.19;68.14;95905.78;5043073;28;20039;-25
2023/01/09 05:25:14;;;;;;;11.32;3.50;;;;;;;15.29;67.53;95917.38;5047424;28;20017;-25
2023/01/09 05:27:42;;;;;;;7.75;2.95;;;;;;;15.28;67.71;95902.22;5034614;28;20079;-25
2023/01/09 05:30:08;;;;;;;10.50;3.05;;;;;;;15.37;67.12;95900.16;5052791;28;20091;-25
2023/01/09 05:46:01;;;;;;;11.27;3.20;;;;;;;15.22;68.08;95879.50;5036229;28;20090;-25
2023/01/09 05:48:27;;;;;;;10.48;2.88;;;;;;;15.17;68.34;95878.19;5053678;28;20427;-25
2023/01/09 05:50:52;;;;;;;10.68;3.28;;;;;;;15.20;68.40;95857.38;5053177;28;20495;-25
2023/01/09 05:53:18;;;;;;;11.45;3.00;;;;;;;15.24;68.34;95858.69;5044110;28;20060;-25
2023/01/09 05:55:43;;;;;;;10.63;3.50;;;;;;;15.22;68.45;95858.41;5049444;28;20036;-25
2023/01/09 05:58:09;;;;;;;12.27;3.70;;;;;;;15.17;68.77;95874.72;5044840;28;20075;-25
2023/01/09 06:00:34;;;;;;;8.38;3.35;;;;;;;15.26;68.47;95839.09;5033991;28;20112;-25
2023/01/09 06:03:00;;;;;;;8.73;2.72;;;;;;;15.21;68.82;95843.22;5043134;28;20029;-25
2023/01/09 06:05:25;;;;;;;7.07;2.50;;;;;;;15.00;69.90;95845.13;5051798;28;20117;-25
2023/01/09 06:07:51;;;;;;;7.60;2.47;;;;;;;15.00;70.01;95858.75;5033964;28;20032;-25
2023/01/09 06:10:16;;;;;;;10.07;3.08;;;;;;;15.05;70.02;95841.75;5033833;28;20026;-25
2023/01/09 06:12:47;;;;;;;6.28;2.70;;;;;;;15.15;69.14;95819.78;5033807;28;20354;-25
2023/01/09 06:15:14;;;;;;;8.05;2.63;;;;;;;15.26;68.89;95811.78;5035802;28;20028;-25
2023/01/09 06:17:40;;;;;;;9.80;3.20;;;;;;;15.25;69.06;95827.41;5053511;28;20017;-25
2023/01/09 06:20:06;;;;;;;7.07;2.95;;;;;;;15.19;69.49;95809.44;5039741;28;20025;-25
2023/01/09 06:22:32;;;;;;;9.48;3.30;;;;;;;15.27;69.04;95816.78;5053481;28;20025;-25
2023/01/09 06:41:45;;;;;;;10.95;3.58;;;;;;;15.20;69.76;95787.13;5038011;28;20029;-25
2023/01/09 06:44:11;;;;;;;8.60;4.10;;;;;;;15.27;69.80;95791.44;5015150;28;20029;-26
2023/01/09 06:46:36;;;;;;;10.00;4.30;;;;;;;15.31;69.25;95768.19;5033637;28;20061;-25
2023/01/09 06:49:02;;;;;;;8.82;3.72;;;;;;;15.25;69.53;95759.13;5033115;28;20025;-25
2023/01/09 06:51:27;;;;;;;10.23;3.17;;;;;;;15.12;70.43;95780.53;5046682;28;20044;-25
2023/01/09 06:53:53;;;;;;;5.10;3.42;;;;;;;15.18;70.16;95794.28;5039909;28;20500;-25
2023/01/09 06:56:19;;;;;;;9.45;3.40;;;;;;;15.34;69.19;95761.00;5034321;28;20437;-25
2023/01/09 06:58:44;;;;;;;9.38;3.20;;;;;;;15.18;70.03;95750.56;5033075;28;20104;-26
2023/01/09 07:01:10;;;;;;;7.53;3.22;;;;;;;15.34;69.40;95764.47;5041230;28;20105;-25
2023/01/09 07:03:35;;;;;;;7.78;2.88;;;;;;;15.12;70.67;95747.75;5035059;28;20377;-25
2023/01/09 07:06:01;;;;;;;7.22;2.90;;;;;;;15.32;69.36;95755.28;5044086;28;20021;-25
2023/01/09 07:08:27;;;;;;;8.73;2.83;;;;;;;15.24;69.88;95749.44;5037633;28;20057;-25
2023/01/09 07:10:52;;;;;;;6.03;2.67;;;;;;;15.26;69.71;95746.97;5038491;28;20477;-25
2023/01/09 07:13:17;;;;;;;8.60;3.13;;;;;;;15.30;69.52;95747.53;5037001;28;20029;-25
2023/01/09 07:15:43;;;;;;;5.68;2.63;;;;;;;15.30;70.28;95774.88;5052263;28;20028;-25
2023/01/09 07:18:08;;;;;;;7.40;2.42;;;;;;;15.38;69.13;95753.38;5056203;28;20055;-26
2023/01/09 07:20:34;;;;;;;5.97;2.58;;;;;;;15.32;69.53;95728.72;5044988;28;20401;-25
2023/01/09 07:22:59;;;;;;;7.50;2.30;;;;;;;15.40;68.98;95724.34;5047000;28;20032;-25
2023/01/09 07:25:25;;;;;;;9.73;2.80;;;;;;;15.00;71.60;95744.06;5040927;28;20473;-25
2023/01/09 07:27:50;;;;;;;5.97;3.13;;;;;;;15.11;70.69;95729.84;5045098;28;20462;-25
2023/01/09 07:30:16;;;;;;;9.60;2.53;;;;;;;15.06;70.67;95752.38;5041781;28;20074;-25
2023/01/09 07:32:42;;;;;;;4.57;2.55;;;;;;;14.95;71.30;95746.72;5044390;28;20068;-25
2023/01/09 07:35:09;;;;;;;8.60;2.53;;;;;;;15.08;70.81;95747.19;5053913;28;20025;-26
2023/01/09 07:37:34;;;;;;;5.82;2.30;;;;;;;15.15;70.40;95757.72;5049581;28;20026;-25
2023/01/09 07:40:00;;;;;;;5.80;2.28;;;;;;;15.23;70.14;95747.16;5035859;28;20421;-25
2023/01/09 07:42:25;;;;;;;8.75;2.45;;;;;;;15.35;69.53;95760.53;5032117;28;20389;-25
2023/01/09 07:44:51;;;;;;;5.97;2.22;;;;;;;15.27;69.92;95778.53;5044251;28;20068;-25
2023/01/09 07:47:16;;;;;;;8.43;2.35;;;;;;;15.11;70.82;95754.44;5036270;28;20033;-25
2023/01/09 07:49:42;;;;;;;5.50;1.90;;;;;;;15.26;70.04;95744.25;5049426;28;20025;-25
2023/01/09 07:52:07;;;;;;;4.50;2.22;;;;;;;15.31;69.31;95779.09;5055041;28;20039;-25
2023/01/09 07:54:33;;;;;;;7.72;2.28;;;;;;;15.23;70.07;95764.31;5051818;28;20501;-25
2023/01/09 07:56:58;;;;;;;9.23;2.25;;;;;;;15.08;70.71;95782.69;5035944;28;20060;-25
